Airfield :
LOGIN :

Register | Disclaimer

   EN    FR    IT 

 










Legend :    VFR   Marginal VFR   IFR   Intensive IFR   Very Intensive IFR
Visi :
Ceiling :
>= 8 km
>= 3000ft
5 to 8 km
1000 to 3000 ft
1500m to 5 km
500 to 1000 ft
800 to 1500m
200 to 500 ft
< 800m
< 200 ft
Symbols :   Thunderstorms  Fog  Heavy snow  Heavy precipitations  Wind > 20 kt
SIGMETs :     Misc.  Thunderstorms  Icing  Turbulence  Mountain Waves  Volcanic Ashes






- Airport Elevation : 821 ft
- IATA code : LYS


LFLL - Lyon St Exupéry / Satolas

CURRENT METAR :
  • 300200Z 16003KT CAVOK 10/09 Q1018 BECMG 2000 BR

EXPIRED METARs :
  • 300130Z 13004KT CAVOK 11/09 Q1018 NOSIG
  • 300100Z 18002KT CAVOK 11/10 Q1018 NOSIG
  • 300030Z 20001KT CAVOK 11/10 Q1018 NOSIG
  • 300000Z 26002KT CAVOK 11/10 Q1018 NOSIG

TAF AMD TAF LFLL
Valid from the 30 at 02:00 until the 01 at 06:00 UTC


300234Z 3002/0106 VRB02KT CAVOK
BECMG 3002/3004 2000 BR
TEMPO 3003/3009 0700 FG
PROB40 3003/3008 0300 FG VV///
BECMG 3010/3011 CAVOK
BECMG 3017/3020 17005KT



MET'MAP, your aeronautical weather chart ! - Copyright ORBIFLY December 2007 - Disclaimer

ORBIFLY MET'MAP TEAM :

Programming & Development : Alexandra Zaïnal
Concept & original design : Baudouin d'Aumeries
Assistance for programming : Marc-Olivier Méhu
Technical & hardware support : Manuel Goepfert

Contact : metmap@orbifly.com




SOURCES & CREDITS :

   NOAA